sensor_id;sensor_type;location;lat;lon;timestamp;P1;durP1;ratioP1;P2;durP2;ratioP2
19519;SDS011;9904;52.246;20.898;2023-04-22T00:01:57;16.17;;;7.93;;
19519;SDS011;9904;52.246;20.898;2023-04-22T00:04:23;22.77;;;7.37;;
19519;SDS011;9904;52.246;20.898;2023-04-22T00:06:50;19.07;;;7.27;;
19519;SDS011;9904;52.246;20.898;2023-04-22T00:09:17;16.00;;;7.60;;
19519;SDS011;9904;52.246;20.898;2023-04-22T00:11:43;18.97;;;7.97;;
19519;SDS011;9904;52.246;20.898;2023-04-22T00:14:10;18.30;;;8.43;;
19519;SDS011;9904;52.246;20.898;2023-04-22T00:16:37;21.30;;;8.13;;
19519;SDS011;9904;52.246;20.898;2023-04-22T00:19:04;22.43;;;8.30;;
19519;SDS011;9904;52.246;20.898;2023-04-22T00:21:31;20.33;;;7.67;;
19519;SDS011;9904;52.246;20.898;2023-04-22T00:23:57;17.97;;;6.53;;
19519;SDS011;9904;52.246;20.898;2023-04-22T00:26:24;12.37;;;6.70;;
19519;SDS011;9904;52.246;20.898;2023-04-22T00:28:50;15.80;;;7.60;;
19519;SDS011;9904;52.246;20.898;2023-04-22T00:31:17;19.07;;;8.23;;
19519;SDS011;9904;52.246;20.898;2023-04-22T00:33:44;19.50;;;8.03;;
19519;SDS011;9904;52.246;20.898;2023-04-22T00:36:10;19.73;;;7.40;;
19519;SDS011;9904;52.246;20.898;2023-04-22T00:38:37;13.40;;;6.93;;
19519;SDS011;9904;52.246;20.898;2023-04-22T00:41:04;15.37;;;7.40;;
19519;SDS011;9904;52.246;20.898;2023-04-22T00:43:30;20.00;;;7.50;;
19519;SDS011;9904;52.246;20.898;2023-04-22T00:45:57;18.77;;;7.40;;
19519;SDS011;9904;52.246;20.898;2023-04-22T00:48:23;15.47;;;6.90;;
19519;SDS011;9904;52.246;20.898;2023-04-22T00:50:54;17.37;;;7.23;;
19519;SDS011;9904;52.246;20.898;2023-04-22T00:53:20;17.63;;;6.67;;
19519;SDS011;9904;52.246;20.898;2023-04-22T00:55:47;17.07;;;6.67;;
19519;SDS011;9904;52.246;20.898;2023-04-22T00:58:13;16.90;;;7.03;;
19519;SDS011;9904;52.246;20.898;2023-04-22T01:00:40;16.30;;;7.07;;
19519;SDS011;9904;52.246;20.898;2023-04-22T01:03:07;15.77;;;7.03;;
19519;SDS011;9904;52.246;20.898;2023-04-22T01:05:33;20.40;;;7.37;;
19519;SDS011;9904;52.246;20.898;2023-04-22T01:08:01;15.33;;;6.47;;
19519;SDS011;9904;52.246;20.898;2023-04-22T01:10:27;18.33;;;6.33;;
19519;SDS011;9904;52.246;20.898;2023-04-22T01:12:54;22.33;;;7.27;;
19519;SDS011;9904;52.246;20.898;2023-04-22T01:15:21;14.13;;;6.57;;
19519;SDS011;9904;52.246;20.898;2023-04-22T01:17:47;16.77;;;6.40;;
19519;SDS011;9904;52.246;20.898;2023-04-22T01:20:14;12.70;;;5.90;;
19519;SDS011;9904;52.246;20.898;2023-04-22T01:22:41;13.93;;;7.07;;
19519;SDS011;9904;52.246;20.898;2023-04-22T01:25:10;15.50;;;5.97;;
19519;SDS011;9904;52.246;20.898;2023-04-22T01:27:37;16.33;;;6.10;;
19519;SDS011;9904;52.246;20.898;2023-04-22T01:30:04;13.00;;;6.33;;
19519;SDS011;9904;52.246;20.898;2023-04-22T01:32:31;14.37;;;6.43;;
19519;SDS011;9904;52.246;20.898;2023-04-22T01:34:58;15.37;;;6.40;;
19519;SDS011;9904;52.246;20.898;2023-04-22T01:37:25;12.27;;;6.03;;
19519;SDS011;9904;52.246;20.898;2023-04-22T01:39:51;14.83;;;6.80;;
19519;SDS011;9904;52.246;20.898;2023-04-22T01:42:18;14.93;;;6.13;;
19519;SDS011;9904;52.246;20.898;2023-04-22T01:44:44;14.77;;;6.63;;
19519;SDS011;9904;52.246;20.898;2023-04-22T01:47:11;20.87;;;6.03;;
19519;SDS011;9904;52.246;20.898;2023-04-22T01:49:38;14.07;;;6.80;;
19519;SDS011;9904;52.246;20.898;2023-04-22T01:52:05;10.97;;;5.53;;
19519;SDS011;9904;52.246;20.898;2023-04-22T01:54:32;11.57;;;5.70;;
19519;SDS011;9904;52.246;20.898;2023-04-22T01:56:59;13.50;;;5.87;;
19519;SDS011;9904;52.246;20.898;2023-04-22T01:59:25;15.30;;;6.30;;
19519;SDS011;9904;52.246;20.898;2023-04-22T02:01:52;11.50;;;5.90;;
19519;SDS011;9904;52.246;20.898;2023-04-22T02:04:19;11.87;;;6.60;;
19519;SDS011;9904;52.246;20.898;2023-04-22T02:06:45;14.90;;;6.17;;
19519;SDS011;9904;52.246;20.898;2023-04-22T02:09:12;11.17;;;5.87;;
19519;SDS011;9904;52.246;20.898;2023-04-22T02:11:38;20.50;;;6.83;;
19519;SDS011;9904;52.246;20.898;2023-04-22T02:14:05;16.10;;;6.23;;
19519;SDS011;9904;52.246;20.898;2023-04-22T02:16:31;17.37;;;6.27;;
19519;SDS011;9904;52.246;20.898;2023-04-22T02:18:58;15.20;;;6.53;;
19519;SDS011;9904;52.246;20.898;2023-04-22T02:21:27;16.07;;;6.60;;
19519;SDS011;9904;52.246;20.898;2023-04-22T02:23:54;12.87;;;6.30;;
19519;SDS011;9904;52.246;20.898;2023-04-22T02:26:21;13.87;;;6.10;;
19519;SDS011;9904;52.246;20.898;2023-04-22T02:28:48;12.90;;;5.90;;
19519;SDS011;9904;52.246;20.898;2023-04-22T02:31:15;14.10;;;6.63;;
19519;SDS011;9904;52.246;20.898;2023-04-22T02:33:42;15.43;;;5.97;;
19519;SDS011;9904;52.246;20.898;2023-04-22T02:36:08;13.23;;;6.27;;
19519;SDS011;9904;52.246;20.898;2023-04-22T02:38:35;14.90;;;6.13;;
19519;SDS011;9904;52.246;20.898;2023-04-22T02:41:01;12.00;;;5.93;;
19519;SDS011;9904;52.246;20.898;2023-04-22T02:43:28;11.97;;;5.77;;
19519;SDS011;9904;52.246;20.898;2023-04-22T02:45:54;13.47;;;5.90;;
19519;SDS011;9904;52.246;20.898;2023-04-22T02:48:21;12.60;;;6.33;;
19519;SDS011;9904;52.246;20.898;2023-04-22T02:50:47;16.20;;;6.50;;
19519;SDS011;9904;52.246;20.898;2023-04-22T02:53:14;12.83;;;5.97;;
19519;SDS011;9904;52.246;20.898;2023-04-22T02:55:41;15.03;;;6.00;;
19519;SDS011;9904;52.246;20.898;2023-04-22T02:58:07;17.60;;;5.93;;
19519;SDS011;9904;52.246;20.898;2023-04-22T03:00:34;15.47;;;5.87;;
19519;SDS011;9904;52.246;20.898;2023-04-22T03:03:01;11.40;;;5.57;;
19519;SDS011;9904;52.246;20.898;2023-04-22T03:05:28;15.07;;;5.67;;
19519;SDS011;9904;52.246;20.898;2023-04-22T03:07:54;13.93;;;5.87;;
19519;SDS011;9904;52.246;20.898;2023-04-22T03:10:21;13.13;;;6.13;;
19519;SDS011;9904;52.246;20.898;2023-04-22T03:12:47;15.90;;;6.17;;
19519;SDS011;9904;52.246;20.898;2023-04-22T03:15:14;16.07;;;5.90;;
19519;SDS011;9904;52.246;20.898;2023-04-22T03:17:44;17.70;;;7.30;;
19519;SDS011;9904;52.246;20.898;2023-04-22T03:20:11;23.10;;;7.17;;
19519;SDS011;9904;52.246;20.898;2023-04-22T03:22:37;16.60;;;7.27;;
19519;SDS011;9904;52.246;20.898;2023-04-22T03:25:04;16.20;;;7.40;;
19519;SDS011;9904;52.246;20.898;2023-04-22T03:27:31;16.97;;;7.03;;
19519;SDS011;9904;52.246;20.898;2023-04-22T03:29:58;26.47;;;7.53;;
19519;SDS011;9904;52.246;20.898;2023-04-22T03:32:24;21.80;;;6.57;;
19519;SDS011;9904;52.246;20.898;2023-04-22T03:34:51;20.83;;;7.47;;
19519;SDS011;9904;52.246;20.898;2023-04-22T03:37:18;27.83;;;7.77;;
19519;SDS011;9904;52.246;20.898;2023-04-22T03:39:44;18.63;;;7.47;;
19519;SDS011;9904;52.246;20.898;2023-04-22T03:42:12;18.73;;;7.87;;
19519;SDS011;9904;52.246;20.898;2023-04-22T03:44:39;24.33;;;8.17;;
19519;SDS011;9904;52.246;20.898;2023-04-22T03:47:06;19.63;;;7.03;;
19519;SDS011;9904;52.246;20.898;2023-04-22T03:49:33;19.47;;;6.27;;
19519;SDS011;9904;52.246;20.898;2023-04-22T03:52:00;14.30;;;6.00;;
19519;SDS011;9904;52.246;20.898;2023-04-22T03:54:26;18.90;;;7.13;;
19519;SDS011;9904;52.246;20.898;2023-04-22T03:56:53;18.33;;;7.10;;
19519;SDS011;9904;52.246;20.898;2023-04-22T03:59:19;16.40;;;7.03;;
19519;SDS011;9904;52.246;20.898;2023-04-22T04:01:46;25.30;;;7.53;;
19519;SDS011;9904;52.246;20.898;2023-04-22T04:04:13;24.30;;;7.17;;
19519;SDS011;9904;52.246;20.898;2023-04-22T04:06:40;25.87;;;7.77;;
19519;SDS011;9904;52.246;20.898;2023-04-22T04:09:07;15.53;;;6.80;;
19519;SDS011;9904;52.246;20.898;2023-04-22T04:11:33;13.33;;;6.23;;
19519;SDS011;9904;52.246;20.898;2023-04-22T04:14:00;15.53;;;7.50;;
19519;SDS011;9904;52.246;20.898;2023-04-22T04:16:28;19.33;;;7.23;;
19519;SDS011;9904;52.246;20.898;2023-04-22T04:18:55;21.10;;;7.23;;
19519;SDS011;9904;52.246;20.898;2023-04-22T04:21:22;20.60;;;7.07;;
19519;SDS011;9904;52.246;20.898;2023-04-22T04:23:48;19.13;;;6.53;;
19519;SDS011;9904;52.246;20.898;2023-04-22T04:26:15;11.87;;;5.63;;
19519;SDS011;9904;52.246;20.898;2023-04-22T04:28:43;16.03;;;6.17;;
19519;SDS011;9904;52.246;20.898;2023-04-22T04:31:10;12.37;;;4.97;;
19519;SDS011;9904;52.246;20.898;2023-04-22T04:33:37;19.20;;;5.83;;
19519;SDS011;9904;52.246;20.898;2023-04-22T04:36:04;15.67;;;5.13;;
19519;SDS011;9904;52.246;20.898;2023-04-22T04:38:31;13.53;;;6.10;;
19519;SDS011;9904;52.246;20.898;2023-04-22T04:40:59;13.67;;;5.60;;
19519;SDS011;9904;52.246;20.898;2023-04-22T04:43:26;15.00;;;5.33;;
19519;SDS011;9904;52.246;20.898;2023-04-22T04:45:54;11.23;;;5.67;;
19519;SDS011;9904;52.246;20.898;2023-04-22T04:48:21;13.13;;;5.40;;
19519;SDS011;9904;52.246;20.898;2023-04-22T04:50:50;9.57;;;4.70;;
19519;SDS011;9904;52.246;20.898;2023-04-22T04:53:20;15.73;;;5.40;;
19519;SDS011;9904;52.246;20.898;2023-04-22T04:55:47;13.40;;;5.50;;
19519;SDS011;9904;52.246;20.898;2023-04-22T04:58:13;10.27;;;5.10;;
19519;SDS011;9904;52.246;20.898;2023-04-22T05:00:40;13.40;;;5.20;;
19519;SDS011;9904;52.246;20.898;2023-04-22T05:03:06;15.27;;;5.07;;
19519;SDS011;9904;52.246;20.898;2023-04-22T05:05:33;19.20;;;5.03;;
19519;SDS011;9904;52.246;20.898;2023-04-22T05:08:00;18.03;;;5.27;;
19519;SDS011;9904;52.246;20.898;2023-04-22T05:10:27;11.33;;;5.27;;
19519;SDS011;9904;52.246;20.898;2023-04-22T05:12:54;11.30;;;5.10;;
19519;SDS011;9904;52.246;20.898;2023-04-22T05:15:20;13.13;;;4.60;;
19519;SDS011;9904;52.246;20.898;2023-04-22T05:17:47;9.47;;;4.63;;
19519;SDS011;9904;52.246;20.898;2023-04-22T05:20:13;15.17;;;4.70;;
19519;SDS011;9904;52.246;20.898;2023-04-22T05:22:40;8.97;;;4.77;;
19519;SDS011;9904;52.246;20.898;2023-04-22T05:25:08;13.17;;;4.87;;
19519;SDS011;9904;52.246;20.898;2023-04-22T05:27:36;15.80;;;5.00;;
19519;SDS011;9904;52.246;20.898;2023-04-22T05:30:03;10.73;;;4.67;;
19519;SDS011;9904;52.246;20.898;2023-04-22T05:32:30;9.67;;;4.83;;
19519;SDS011;9904;52.246;20.898;2023-04-22T05:34:56;13.40;;;5.40;;
19519;SDS011;9904;52.246;20.898;2023-04-22T05:37:23;14.07;;;5.30;;
19519;SDS011;9904;52.246;20.898;2023-04-22T05:39:49;10.53;;;4.93;;
19519;SDS011;9904;52.246;20.898;2023-04-22T05:42:16;8.70;;;4.03;;
19519;SDS011;9904;52.246;20.898;2023-04-22T05:44:43;9.10;;;4.30;;
19519;SDS011;9904;52.246;20.898;2023-04-22T05:47:09;8.80;;;4.43;;
19519;SDS011;9904;52.246;20.898;2023-04-22T05:49:36;13.93;;;5.00;;
19519;SDS011;9904;52.246;20.898;2023-04-22T05:52:03;12.20;;;5.03;;
19519;SDS011;9904;52.246;20.898;2023-04-22T05:54:30;12.13;;;5.40;;
19519;SDS011;9904;52.246;20.898;2023-04-22T05:56:56;12.43;;;5.13;;
19519;SDS011;9904;52.246;20.898;2023-04-22T05:59:23;12.00;;;4.20;;
19519;SDS011;9904;52.246;20.898;2023-04-22T06:01:50;11.23;;;4.63;;
19519;SDS011;9904;52.246;20.898;2023-04-22T06:04:17;8.07;;;4.77;;
19519;SDS011;9904;52.246;20.898;2023-04-22T06:06:44;9.80;;;4.57;;
19519;SDS011;9904;52.246;20.898;2023-04-22T06:09:10;8.93;;;4.67;;
19519;SDS011;9904;52.246;20.898;2023-04-22T06:11:37;12.43;;;4.70;;
19519;SDS011;9904;52.246;20.898;2023-04-22T06:14:04;10.23;;;5.13;;
19519;SDS011;9904;52.246;20.898;2023-04-22T06:16:30;14.13;;;5.50;;
19519;SDS011;9904;52.246;20.898;2023-04-22T06:18:57;13.90;;;4.70;;
19519;SDS011;9904;52.246;20.898;2023-04-22T06:21:24;9.73;;;5.20;;
19519;SDS011;9904;52.246;20.898;2023-04-22T06:23:50;8.23;;;4.63;;
19519;SDS011;9904;52.246;20.898;2023-04-22T06:26:17;15.73;;;4.93;;
19519;SDS011;9904;52.246;20.898;2023-04-22T06:28:44;12.60;;;4.70;;
19519;SDS011;9904;52.246;20.898;2023-04-22T06:31:10;11.60;;;4.83;;
19519;SDS011;9904;52.246;20.898;2023-04-22T06:33:37;9.13;;;4.93;;
19519;SDS011;9904;52.246;20.898;2023-04-22T06:36:03;11.30;;;4.97;;
19519;SDS011;9904;52.246;20.898;2023-04-22T06:38:30;9.87;;;4.70;;
19519;SDS011;9904;52.246;20.898;2023-04-22T06:40:57;12.73;;;5.13;;
19519;SDS011;9904;52.246;20.898;2023-04-22T06:43:23;13.13;;;4.80;;
19519;SDS011;9904;52.246;20.898;2023-04-22T06:45:50;9.83;;;4.70;;
19519;SDS011;9904;52.246;20.898;2023-04-22T06:48:17;9.80;;;5.13;;
19519;SDS011;9904;52.246;20.898;2023-04-22T06:50:43;12.93;;;4.90;;
19519;SDS011;9904;52.246;20.898;2023-04-22T06:53:10;14.00;;;5.10;;
19519;SDS011;9904;52.246;20.898;2023-04-22T06:55:37;14.67;;;5.47;;
19519;SDS011;9904;52.246;20.898;2023-04-22T06:58:04;13.70;;;5.20;;
19519;SDS011;9904;52.246;20.898;2023-04-22T07:00:30;10.87;;;5.00;;
19519;SDS011;9904;52.246;20.898;2023-04-22T07:02:57;9.02;;;4.90;;
19519;SDS011;9904;52.246;20.898;2023-04-22T07:05:24;13.10;;;4.82;;
19519;SDS011;9904;52.246;20.898;2023-04-22T07:07:51;12.52;;;4.65;;
19519;SDS011;9904;52.246;20.898;2023-04-22T07:10:17;11.70;;;4.07;;
19519;SDS011;9904;52.246;20.898;2023-04-22T07:12:44;7.03;;;4.53;;
19519;SDS011;9904;52.246;20.898;2023-04-22T07:15:11;11.25;;;4.93;;
19519;SDS011;9904;52.246;20.898;2023-04-22T07:17:37;12.00;;;4.60;;
19519;SDS011;9904;52.246;20.898;2023-04-22T07:20:04;17.30;;;5.25;;
19519;SDS011;9904;52.246;20.898;2023-04-22T07:22:32;10.45;;;4.55;;
19519;SDS011;9904;52.246;20.898;2023-04-22T07:24:58;9.77;;;4.53;;
19519;SDS011;9904;52.246;20.898;2023-04-22T07:27:25;13.10;;;4.80;;
19519;SDS011;9904;52.246;20.898;2023-04-22T07:29:51;11.77;;;4.68;;
19519;SDS011;9904;52.246;20.898;2023-04-22T07:32:18;13.70;;;4.40;;
19519;SDS011;9904;52.246;20.898;2023-04-22T07:34:45;13.52;;;4.32;;
19519;SDS011;9904;52.246;20.898;2023-04-22T07:37:11;7.68;;;3.88;;
19519;SDS011;9904;52.246;20.898;2023-04-22T07:39:38;6.90;;;4.03;;
19519;SDS011;9904;52.246;20.898;2023-04-22T07:42:05;10.38;;;3.65;;
19519;SDS011;9904;52.246;20.898;2023-04-22T07:44:32;7.18;;;3.47;;
19519;SDS011;9904;52.246;20.898;2023-04-22T07:46:59;6.22;;;3.53;;
19519;SDS011;9904;52.246;20.898;2023-04-22T07:49:25;5.65;;;3.25;;
19519;SDS011;9904;52.246;20.898;2023-04-22T07:51:52;6.78;;;2.78;;
19519;SDS011;9904;52.246;20.898;2023-04-22T07:54:18;9.27;;;3.50;;
19519;SDS011;9904;52.246;20.898;2023-04-22T07:56:45;5.28;;;2.72;;
19519;SDS011;9904;52.246;20.898;2023-04-22T07:59:12;5.32;;;2.90;;
19519;SDS011;9904;52.246;20.898;2023-04-22T08:01:38;6.45;;;3.28;;
19519;SDS011;9904;52.246;20.898;2023-04-22T08:04:05;8.02;;;2.60;;
19519;SDS011;9904;52.246;20.898;2023-04-22T08:06:33;7.82;;;3.70;;
19519;SDS011;9904;52.246;20.898;2023-04-22T08:09:00;7.50;;;3.60;;
19519;SDS011;9904;52.246;20.898;2023-04-22T08:11:26;9.23;;;3.55;;
19519;SDS011;9904;52.246;20.898;2023-04-22T08:13:53;7.37;;;3.77;;
19519;SDS011;9904;52.246;20.898;2023-04-22T08:16:20;8.30;;;4.03;;
19519;SDS011;9904;52.246;20.898;2023-04-22T08:18:47;12.20;;;3.65;;
19519;SDS011;9904;52.246;20.898;2023-04-22T08:21:13;13.07;;;4.20;;
19519;SDS011;9904;52.246;20.898;2023-04-22T08:23:40;6.28;;;3.55;;
19519;SDS011;9904;52.246;20.898;2023-04-22T08:26:08;10.63;;;3.57;;
19519;SDS011;9904;52.246;20.898;2023-04-22T08:28:40;7.60;;;3.78;;
19519;SDS011;9904;52.246;20.898;2023-04-22T08:31:07;10.17;;;3.57;;
19519;SDS011;9904;52.246;20.898;2023-04-22T08:33:39;10.17;;;4.07;;
19519;SDS011;9904;52.246;20.898;2023-04-22T08:36:07;8.97;;;3.30;;
19519;SDS011;9904;52.246;20.898;2023-04-22T08:38:35;8.13;;;3.43;;
19519;SDS011;9904;52.246;20.898;2023-04-22T08:41:02;11.67;;;4.20;;
19519;SDS011;9904;52.246;20.898;2023-04-22T08:43:30;9.33;;;3.80;;
19519;SDS011;9904;52.246;20.898;2023-04-22T08:45:57;11.67;;;4.40;;
19519;SDS011;9904;52.246;20.898;2023-04-22T08:48:24;11.67;;;4.70;;
19519;SDS011;9904;52.246;20.898;2023-04-22T08:50:51;12.87;;;4.63;;
19519;SDS011;9904;52.246;20.898;2023-04-22T08:53:21;11.20;;;4.77;;
19519;SDS011;9904;52.246;20.898;2023-04-22T08:55:50;7.70;;;4.37;;
19519;SDS011;9904;52.246;20.898;2023-04-22T08:58:17;12.00;;;4.40;;
19519;SDS011;9904;52.246;20.898;2023-04-22T09:00:43;8.43;;;4.33;;
19519;SDS011;9904;52.246;20.898;2023-04-22T09:03:10;12.80;;;4.53;;
19519;SDS011;9904;52.246;20.898;2023-04-22T09:05:39;8.07;;;3.53;;
19519;SDS011;9904;52.246;20.898;2023-04-22T09:08:06;8.37;;;2.73;;
19519;SDS011;9904;52.246;20.898;2023-04-22T09:10:35;5.60;;;2.60;;
19519;SDS011;9904;52.246;20.898;2023-04-22T09:13:03;7.23;;;3.23;;
19519;SDS011;9904;52.246;20.898;2023-04-22T09:15:31;8.53;;;4.00;;
19519;SDS011;9904;52.246;20.898;2023-04-22T09:17:58;9.90;;;5.30;;
19519;SDS011;9904;52.246;20.898;2023-04-22T09:20:28;9.10;;;4.63;;
19519;SDS011;9904;52.246;20.898;2023-04-22T09:22:56;7.40;;;3.70;;
19519;SDS011;9904;52.246;20.898;2023-04-22T09:25:24;7.57;;;3.40;;
19519;SDS011;9904;52.246;20.898;2023-04-22T09:27:53;9.00;;;3.03;;
19519;SDS011;9904;52.246;20.898;2023-04-22T09:30:22;9.43;;;3.40;;
19519;SDS011;9904;52.246;20.898;2023-04-22T09:32:53;6.77;;;3.00;;
19519;SDS011;9904;52.246;20.898;2023-04-22T09:35:30;10.10;;;3.50;;
19519;SDS011;9904;52.246;20.898;2023-04-22T09:38:06;9.17;;;3.70;;
19519;SDS011;9904;52.246;20.898;2023-04-22T09:40:34;12.50;;;4.00;;
19519;SDS011;9904;52.246;20.898;2023-04-22T09:43:03;6.50;;;3.93;;
19519;SDS011;9904;52.246;20.898;2023-04-22T09:45:35;8.00;;;3.47;;
19519;SDS011;9904;52.246;20.898;2023-04-22T09:48:08;7.77;;;3.80;;
19519;SDS011;9904;52.246;20.898;2023-04-22T09:50:38;9.40;;;3.90;;
19519;SDS011;9904;52.246;20.898;2023-04-22T09:53:08;10.07;;;3.43;;
19519;SDS011;9904;52.246;20.898;2023-04-22T09:55:38;8.93;;;3.83;;
19519;SDS011;9904;52.246;20.898;2023-04-22T09:58:12;13.47;;;3.67;;
19519;SDS011;9904;52.246;20.898;2023-04-22T10:00:41;9.00;;;3.47;;
19519;SDS011;9904;52.246;20.898;2023-04-22T10:03:10;8.90;;;3.67;;
19519;SDS011;9904;52.246;20.898;2023-04-22T10:05:37;10.53;;;4.13;;
19519;SDS011;9904;52.246;20.898;2023-04-22T10:08:04;5.17;;;2.53;;
19519;SDS011;9904;52.246;20.898;2023-04-22T10:10:31;4.80;;;2.43;;
19519;SDS011;9904;52.246;20.898;2023-04-22T10:12:58;10.23;;;3.17;;
19519;SDS011;9904;52.246;20.898;2023-04-22T10:15:25;6.93;;;2.83;;
19519;SDS011;9904;52.246;20.898;2023-04-22T10:17:55;3.73;;;2.43;;
19519;SDS011;9904;52.246;20.898;2023-04-22T10:20:22;5.93;;;2.63;;
19519;SDS011;9904;52.246;20.898;2023-04-22T10:22:49;5.47;;;2.53;;
19519;SDS011;9904;52.246;20.898;2023-04-22T10:25:21;9.60;;;2.33;;
19519;SDS011;9904;52.246;20.898;2023-04-22T10:27:52;11.63;;;3.20;;
19519;SDS011;9904;52.246;20.898;2023-04-22T10:30:30;7.93;;;3.13;;
19519;SDS011;9904;52.246;20.898;2023-04-22T10:38:34;7.00;;;2.87;;
19519;SDS011;9904;52.246;20.898;2023-04-22T10:41:01;9.37;;;4.10;;
19519;SDS011;9904;52.246;20.898;2023-04-22T10:43:47;6.60;;;3.10;;
19519;SDS011;9904;52.246;20.898;2023-04-22T10:59:29;5.10;;;2.63;;
19519;SDS011;9904;52.246;20.898;2023-04-22T11:02:15;6.73;;;3.03;;
19519;SDS011;9904;52.246;20.898;2023-04-22T11:04:42;11.23;;;3.00;;
19519;SDS011;9904;52.246;20.898;2023-04-22T11:07:13;5.07;;;2.90;;
19519;SDS011;9904;52.246;20.898;2023-04-22T11:09:42;4.20;;;2.50;;
19519;SDS011;9904;52.246;20.898;2023-04-22T11:15:05;7.07;;;2.80;;
19519;SDS011;9904;52.246;20.898;2023-04-22T11:17:37;9.17;;;2.90;;
19519;SDS011;9904;52.246;20.898;2023-04-22T11:20:05;8.03;;;3.00;;
19519;SDS011;9904;52.246;20.898;2023-04-22T11:22:36;10.07;;;3.03;;
19519;SDS011;9904;52.246;20.898;2023-04-22T11:25:13;7.23;;;2.83;;
19519;SDS011;9904;52.246;20.898;2023-04-22T11:27:40;5.70;;;2.83;;
19519;SDS011;9904;52.246;20.898;2023-04-22T11:30:17;8.33;;;2.57;;
19519;SDS011;9904;52.246;20.898;2023-04-22T11:32:46;5.43;;;2.70;;
19519;SDS011;9904;52.246;20.898;2023-04-22T11:35:18;7.30;;;3.03;;
19519;SDS011;9904;52.246;20.898;2023-04-22T11:37:47;8.57;;;2.60;;
19519;SDS011;9904;52.246;20.898;2023-04-22T11:40:20;5.13;;;2.63;;
19519;SDS011;9904;52.246;20.898;2023-04-22T11:42:54;6.30;;;2.70;;
19519;SDS011;9904;52.246;20.898;2023-04-22T11:45:25;5.30;;;2.50;;
19519;SDS011;9904;52.246;20.898;2023-04-22T11:47:52;4.23;;;2.93;;
19519;SDS011;9904;52.246;20.898;2023-04-22T11:50:29;6.20;;;2.50;;
19519;SDS011;9904;52.246;20.898;2023-04-22T11:52:58;8.03;;;2.53;;
19519;SDS011;9904;52.246;20.898;2023-04-22T11:55:30;5.87;;;2.23;;
19519;SDS011;9904;52.246;20.898;2023-04-22T12:00:41;5.73;;;2.80;;
19519;SDS011;9904;52.246;20.898;2023-04-22T12:03:19;7.27;;;2.77;;
19519;SDS011;9904;52.246;20.898;2023-04-22T12:06:00;5.80;;;2.70;;
19519;SDS011;9904;52.246;20.898;2023-04-22T12:08:32;7.23;;;3.10;;
19519;SDS011;9904;52.246;20.898;2023-04-22T12:11:10;7.30;;;3.20;;
19519;SDS011;9904;52.246;20.898;2023-04-22T12:13:40;5.00;;;2.33;;
19519;SDS011;9904;52.246;20.898;2023-04-22T12:16:09;15.43;;;2.53;;
19519;SDS011;9904;52.246;20.898;2023-04-22T12:18:39;8.90;;;2.00;;
19519;SDS011;9904;52.246;20.898;2023-04-22T12:21:26;6.23;;;2.20;;
19519;SDS011;9904;52.246;20.898;2023-04-22T12:23:59;9.27;;;2.87;;
19519;SDS011;9904;52.246;20.898;2023-04-22T12:26:29;6.73;;;2.43;;
19519;SDS011;9904;52.246;20.898;2023-04-22T12:28:57;7.57;;;2.80;;
19519;SDS011;9904;52.246;20.898;2023-04-22T12:31:24;8.63;;;2.70;;
19519;SDS011;9904;52.246;20.898;2023-04-22T12:33:52;4.43;;;2.13;;
19519;SDS011;9904;52.246;20.898;2023-04-22T12:36:19;5.37;;;2.50;;
19519;SDS011;9904;52.246;20.898;2023-04-22T12:38:46;10.43;;;2.40;;
19519;SDS011;9904;52.246;20.898;2023-04-22T12:41:13;4.27;;;2.10;;
19519;SDS011;9904;52.246;20.898;2023-04-22T12:43:41;4.83;;;1.90;;
19519;SDS011;9904;52.246;20.898;2023-04-22T12:46:08;6.40;;;2.33;;
19519;SDS011;9904;52.246;20.898;2023-04-22T12:48:35;6.07;;;2.23;;
19519;SDS011;9904;52.246;20.898;2023-04-22T12:51:03;6.70;;;2.40;;
19519;SDS011;9904;52.246;20.898;2023-04-22T12:53:30;4.83;;;2.37;;
19519;SDS011;9904;52.246;20.898;2023-04-22T12:55:57;6.83;;;2.43;;
19519;SDS011;9904;52.246;20.898;2023-04-22T12:58:24;6.85;;;2.55;;
19519;SDS011;9904;52.246;20.898;2023-04-22T13:00:51;10.23;;;2.77;;
19519;SDS011;9904;52.246;20.898;2023-04-22T13:03:18;6.82;;;2.63;;
19519;SDS011;9904;52.246;20.898;2023-04-22T13:05:45;7.07;;;2.60;;
19519;SDS011;9904;52.246;20.898;2023-04-22T13:08:12;7.77;;;2.67;;
19519;SDS011;9904;52.246;20.898;2023-04-22T13:10:38;4.25;;;2.42;;
19519;SDS011;9904;52.246;20.898;2023-04-22T13:13:05;11.43;;;2.42;;
19519;SDS011;9904;52.246;20.898;2023-04-22T13:15:36;6.63;;;2.40;;
19519;SDS011;9904;52.246;20.898;2023-04-22T13:18:04;9.20;;;2.57;;
19519;SDS011;9904;52.246;20.898;2023-04-22T13:20:30;7.23;;;2.43;;
19519;SDS011;9904;52.246;20.898;2023-04-22T13:22:57;7.23;;;2.10;;
19519;SDS011;9904;52.246;20.898;2023-04-22T13:25:24;4.07;;;2.00;;
19519;SDS011;9904;52.246;20.898;2023-04-22T13:27:50;5.13;;;2.40;;
19519;SDS011;9904;52.246;20.898;2023-04-22T13:30:17;5.30;;;2.03;;
19519;SDS011;9904;52.246;20.898;2023-04-22T13:32:44;3.13;;;2.20;;
19519;SDS011;9904;52.246;20.898;2023-04-22T13:35:11;8.13;;;2.83;;
19519;SDS011;9904;52.246;20.898;2023-04-22T13:37:38;16.33;;;2.50;;
19519;SDS011;9904;52.246;20.898;2023-04-22T13:40:04;5.50;;;2.10;;
19519;SDS011;9904;52.246;20.898;2023-04-22T13:42:31;3.55;;;1.90;;
19519;SDS011;9904;52.246;20.898;2023-04-22T13:44:59;4.22;;;1.95;;
19519;SDS011;9904;52.246;20.898;2023-04-22T13:47:26;5.35;;;1.92;;
19519;SDS011;9904;52.246;20.898;2023-04-22T13:49:52;3.25;;;1.77;;
19519;SDS011;9904;52.246;20.898;2023-04-22T13:52:19;4.87;;;1.90;;
19519;SDS011;9904;52.246;20.898;2023-04-22T13:54:45;6.57;;;2.08;;
19519;SDS011;9904;52.246;20.898;2023-04-22T13:57:12;6.65;;;1.90;;
19519;SDS011;9904;52.246;20.898;2023-04-22T13:59:39;4.83;;;2.10;;
19519;SDS011;9904;52.246;20.898;2023-04-22T14:02:07;6.70;;;1.65;;
19519;SDS011;9904;52.246;20.898;2023-04-22T14:04:34;5.57;;;2.03;;
19519;SDS011;9904;52.246;20.898;2023-04-22T14:07:01;6.20;;;1.93;;
19519;SDS011;9904;52.246;20.898;2023-04-22T14:09:29;6.30;;;1.97;;
19519;SDS011;9904;52.246;20.898;2023-04-22T14:11:55;8.23;;;2.20;;
19519;SDS011;9904;52.246;20.898;2023-04-22T14:14:22;8.07;;;2.17;;
19519;SDS011;9904;52.246;20.898;2023-04-22T14:16:48;5.18;;;1.90;;
19519;SDS011;9904;52.246;20.898;2023-04-22T14:19:15;5.77;;;1.83;;
19519;SDS011;9904;52.246;20.898;2023-04-22T14:21:42;10.77;;;5.50;;
19519;SDS011;9904;52.246;20.898;2023-04-22T14:24:09;6.30;;;1.98;;
19519;SDS011;9904;52.246;20.898;2023-04-22T14:26:36;6.63;;;2.03;;
19519;SDS011;9904;52.246;20.898;2023-04-22T14:29:03;8.32;;;2.15;;
19519;SDS011;9904;52.246;20.898;2023-04-22T14:31:29;6.27;;;2.43;;
19519;SDS011;9904;52.246;20.898;2023-04-22T14:33:56;4.07;;;2.00;;
19519;SDS011;9904;52.246;20.898;2023-04-22T14:36:23;3.83;;;2.30;;
19519;SDS011;9904;52.246;20.898;2023-04-22T14:38:49;3.73;;;2.20;;
19519;SDS011;9904;52.246;20.898;2023-04-22T14:41:16;5.82;;;2.35;;
19519;SDS011;9904;52.246;20.898;2023-04-22T14:43:42;4.17;;;2.10;;
19519;SDS011;9904;52.246;20.898;2023-04-22T14:46:10;7.13;;;2.30;;
19519;SDS011;9904;52.246;20.898;2023-04-22T14:48:37;4.50;;;2.00;;
19519;SDS011;9904;52.246;20.898;2023-04-22T14:51:04;5.27;;;1.90;;
19519;SDS011;9904;52.246;20.898;2023-04-22T14:53:31;6.20;;;2.00;;
19519;SDS011;9904;52.246;20.898;2023-04-22T14:55:58;8.00;;;1.97;;
19519;SDS011;9904;52.246;20.898;2023-04-22T14:58:25;7.07;;;2.13;;
19519;SDS011;9904;52.246;20.898;2023-04-22T15:00:53;4.27;;;2.13;;
19519;SDS011;9904;52.246;20.898;2023-04-22T15:03:20;6.40;;;2.00;;
19519;SDS011;9904;52.246;20.898;2023-04-22T15:05:47;4.78;;;2.08;;
19519;SDS011;9904;52.246;20.898;2023-04-22T15:08:14;6.43;;;2.30;;